Terminal Aerodrome Forecast
Issued by NWS Wichita, KS

Home | Current Version | Previous Version | Text Only | Print | Product List | Glossary On
Versions: 1 2 3 4 5 6 7 8 9 10 11 12 13 14 15
000
FTUS43 KICT 290520
TAFICT
TAF
KICT 290520Z 2906/3006 17014KT P6SM SCT100 SCT250
      TEMPO 2910/2914 BKN018
     FM291400 27009KT P6SM BKN100
     FM291600 35018G24KT P6SM SCT100 BKN200
     FM300000 36006KT P6SM SKC=

USA.gov is the U.S. government's official web portal to all federal, state and local government web resources and services.